Elizaville, Kentucky
Current Conditions -  °F | °C
As of 1:55 PM on Sunday 23 Nov 2014 (Local Time) from KFGX Reporting Station
Drizzle Drizzle  
Wind Chill: 59°   Ceiling: 6500
Heat Index: 59°   Visibility: 10mi
Dew Point: 48°   Wind: 7mph
Humidity: 68%   Direction: 160°SSE
Pressure: 29.79"   Gusts: NA
Location:  38.42°N, 83.83°W
Report Text: KFGX 231855Z AUTO 16006KT 10SM DZ SCT045 BKN065 OVC080 15/09 A2979 RMK AO2 T01480089
Loading
Personal Weather Stations






























Interactive Weather Map New forecast layout! Learn more

10-Day Weather Forecast

Advertisements
Track Severe Weather on mobile